sensor_id;sensor_type;location;lat;lon;timestamp;P1;durP1;ratioP1;P2;durP2;ratioP2
84007;SDS011;74070;50.948;6.954;2024-01-30T00:00:08;12.87;;;9.47;;
84007;SDS011;74070;50.948;6.954;2024-01-30T00:02:35;15.10;;;9.83;;
84007;SDS011;74070;50.948;6.954;2024-01-30T00:05:01;11.30;;;9.10;;
84007;SDS011;74070;50.948;6.954;2024-01-30T00:07:28;14.87;;;9.43;;
84007;SDS011;74070;50.948;6.954;2024-01-30T00:09:55;11.60;;;9.53;;
84007;SDS011;74070;50.948;6.954;2024-01-30T00:12:23;15.27;;;9.93;;
84007;SDS011;74070;50.948;6.954;2024-01-30T00:14:49;15.77;;;9.63;;
84007;SDS011;74070;50.948;6.954;2024-01-30T00:17:16;18.77;;;10.73;;
84007;SDS011;74070;50.948;6.954;2024-01-30T00:19:43;10.57;;;8.30;;
84007;SDS011;74070;50.948;6.954;2024-01-30T00:22:09;15.17;;;10.10;;
84007;SDS011;74070;50.948;6.954;2024-01-30T00:24:36;11.43;;;8.90;;
84007;SDS011;74070;50.948;6.954;2024-01-30T00:27:03;15.50;;;9.90;;
84007;SDS011;74070;50.948;6.954;2024-01-30T00:29:31;16.53;;;9.63;;
84007;SDS011;74070;50.948;6.954;2024-01-30T00:31:58;12.37;;;8.90;;
84007;SDS011;74070;50.948;6.954;2024-01-30T00:34:25;13.90;;;9.37;;
84007;SDS011;74070;50.948;6.954;2024-01-30T00:36:53;13.13;;;8.97;;
84007;SDS011;74070;50.948;6.954;2024-01-30T00:39:20;10.90;;;9.23;;
84007;SDS011;74070;50.948;6.954;2024-01-30T00:41:47;15.17;;;10.13;;
84007;SDS011;74070;50.948;6.954;2024-01-30T00:44:13;12.83;;;9.50;;
84007;SDS011;74070;50.948;6.954;2024-01-30T00:46:40;14.27;;;9.47;;
84007;SDS011;74070;50.948;6.954;2024-01-30T00:49:06;13.37;;;9.33;;
84007;SDS011;74070;50.948;6.954;2024-01-30T00:51:33;11.60;;;9.13;;
84007;SDS011;74070;50.948;6.954;2024-01-30T00:54:00;12.77;;;8.87;;
84007;SDS011;74070;50.948;6.954;2024-01-30T00:56:26;17.13;;;9.87;;
84007;SDS011;74070;50.948;6.954;2024-01-30T00:58:53;14.33;;;9.57;;
84007;SDS011;74070;50.948;6.954;2024-01-30T01:01:19;14.00;;;9.33;;
84007;SDS011;74070;50.948;6.954;2024-01-30T01:03:47;13.40;;;9.13;;
84007;SDS011;74070;50.948;6.954;2024-01-30T01:06:13;11.47;;;9.40;;
84007;SDS011;74070;50.948;6.954;2024-01-30T01:08:40;11.50;;;9.23;;
84007;SDS011;74070;50.948;6.954;2024-01-30T01:11:07;12.27;;;8.67;;
84007;SDS011;74070;50.948;6.954;2024-01-30T01:13:35;16.07;;;10.17;;
84007;SDS011;74070;50.948;6.954;2024-01-30T01:16:02;13.30;;;9.83;;
84007;SDS011;74070;50.948;6.954;2024-01-30T01:18:29;14.83;;;10.40;;
84007;SDS011;74070;50.948;6.954;2024-01-30T01:20:55;16.97;;;10.50;;
84007;SDS011;74070;50.948;6.954;2024-01-30T01:23:22;13.13;;;9.83;;
84007;SDS011;74070;50.948;6.954;2024-01-30T01:25:49;15.60;;;10.10;;
84007;SDS011;74070;50.948;6.954;2024-01-30T01:28:15;11.13;;;9.53;;
84007;SDS011;74070;50.948;6.954;2024-01-30T01:30:42;14.17;;;9.80;;
84007;SDS011;74070;50.948;6.954;2024-01-30T01:33:08;13.87;;;9.13;;
84007;SDS011;74070;50.948;6.954;2024-01-30T01:35:35;17.33;;;9.57;;
84007;SDS011;74070;50.948;6.954;2024-01-30T01:38:02;14.43;;;9.37;;
84007;SDS011;74070;50.948;6.954;2024-01-30T01:40:29;15.50;;;9.83;;
84007;SDS011;74070;50.948;6.954;2024-01-30T01:42:56;14.13;;;9.90;;
84007;SDS011;74070;50.948;6.954;2024-01-30T01:45:22;14.43;;;8.97;;
84007;SDS011;74070;50.948;6.954;2024-01-30T01:47:51;13.07;;;9.23;;
84007;SDS011;74070;50.948;6.954;2024-01-30T01:50:17;11.87;;;8.50;;
84007;SDS011;74070;50.948;6.954;2024-01-30T01:52:44;14.07;;;9.60;;
84007;SDS011;74070;50.948;6.954;2024-01-30T01:55:10;15.27;;;9.40;;
84007;SDS011;74070;50.948;6.954;2024-01-30T01:57:37;10.73;;;8.47;;
84007;SDS011;74070;50.948;6.954;2024-01-30T02:00:03;12.77;;;9.07;;
84007;SDS011;74070;50.948;6.954;2024-01-30T02:02:30;13.53;;;8.67;;
84007;SDS011;74070;50.948;6.954;2024-01-30T02:04:57;12.03;;;9.47;;
84007;SDS011;74070;50.948;6.954;2024-01-30T02:07:24;12.07;;;8.80;;
84007;SDS011;74070;50.948;6.954;2024-01-30T02:09:50;11.77;;;8.57;;
84007;SDS011;74070;50.948;6.954;2024-01-30T02:12:17;10.13;;;8.50;;
84007;SDS011;74070;50.948;6.954;2024-01-30T02:14:44;11.60;;;8.17;;
84007;SDS011;74070;50.948;6.954;2024-01-30T02:17:10;12.83;;;8.80;;
84007;SDS011;74070;50.948;6.954;2024-01-30T02:19:37;11.93;;;8.40;;
84007;SDS011;74070;50.948;6.954;2024-01-30T02:22:03;11.30;;;8.27;;
84007;SDS011;74070;50.948;6.954;2024-01-30T02:24:30;14.00;;;9.23;;
84007;SDS011;74070;50.948;6.954;2024-01-30T02:26:56;12.83;;;7.90;;
84007;SDS011;74070;50.948;6.954;2024-01-30T02:29:24;14.00;;;8.03;;
84007;SDS011;74070;50.948;6.954;2024-01-30T02:31:51;10.90;;;8.67;;
84007;SDS011;74070;50.948;6.954;2024-01-30T02:34:18;13.50;;;8.57;;
84007;SDS011;74070;50.948;6.954;2024-01-30T02:36:45;12.17;;;7.77;;
84007;SDS011;74070;50.948;6.954;2024-01-30T02:39:11;10.23;;;8.07;;
84007;SDS011;74070;50.948;6.954;2024-01-30T02:41:38;10.87;;;8.03;;
84007;SDS011;74070;50.948;6.954;2024-01-30T02:44:04;10.00;;;8.57;;
84007;SDS011;74070;50.948;6.954;2024-01-30T02:46:31;11.30;;;7.67;;
84007;SDS011;74070;50.948;6.954;2024-01-30T02:48:57;12.00;;;8.53;;
84007;SDS011;74070;50.948;6.954;2024-01-30T02:51:24;13.40;;;8.37;;
84007;SDS011;74070;50.948;6.954;2024-01-30T02:53:51;10.23;;;7.70;;
84007;SDS011;74070;50.948;6.954;2024-01-30T02:56:18;12.30;;;8.23;;
84007;SDS011;74070;50.948;6.954;2024-01-30T02:58:45;11.47;;;8.40;;
84007;SDS011;74070;50.948;6.954;2024-01-30T03:01:13;14.07;;;8.27;;
84007;SDS011;74070;50.948;6.954;2024-01-30T03:03:40;11.43;;;8.27;;
84007;SDS011;74070;50.948;6.954;2024-01-30T03:06:07;9.53;;;7.90;;
84007;SDS011;74070;50.948;6.954;2024-01-30T03:08:35;9.97;;;7.97;;
84007;SDS011;74070;50.948;6.954;2024-01-30T03:11:02;9.90;;;7.33;;
84007;SDS011;74070;50.948;6.954;2024-01-30T03:13:29;11.53;;;7.60;;
84007;SDS011;74070;50.948;6.954;2024-01-30T03:15:55;11.77;;;7.67;;
84007;SDS011;74070;50.948;6.954;2024-01-30T03:18:22;11.60;;;7.87;;
84007;SDS011;74070;50.948;6.954;2024-01-30T03:20:50;10.87;;;8.20;;
84007;SDS011;74070;50.948;6.954;2024-01-30T03:23:17;10.57;;;8.03;;
84007;SDS011;74070;50.948;6.954;2024-01-30T03:25:44;12.30;;;8.00;;
84007;SDS011;74070;50.948;6.954;2024-01-30T03:28:12;10.43;;;7.97;;
84007;SDS011;74070;50.948;6.954;2024-01-30T03:30:39;10.63;;;8.57;;
84007;SDS011;74070;50.948;6.954;2024-01-30T03:33:06;13.10;;;7.80;;
84007;SDS011;74070;50.948;6.954;2024-01-30T03:35:34;14.27;;;8.57;;
84007;SDS011;74070;50.948;6.954;2024-01-30T03:38:01;11.83;;;8.50;;
84007;SDS011;74070;50.948;6.954;2024-01-30T03:40:28;11.17;;;7.93;;
84007;SDS011;74070;50.948;6.954;2024-01-30T03:42:55;10.20;;;8.13;;
84007;SDS011;74070;50.948;6.954;2024-01-30T03:45:22;10.67;;;7.97;;
84007;SDS011;74070;50.948;6.954;2024-01-30T03:47:48;12.40;;;9.80;;
84007;SDS011;74070;50.948;6.954;2024-01-30T03:50:15;10.80;;;8.50;;
84007;SDS011;74070;50.948;6.954;2024-01-30T03:52:41;10.93;;;8.17;;
84007;SDS011;74070;50.948;6.954;2024-01-30T03:55:08;13.40;;;9.17;;
84007;SDS011;74070;50.948;6.954;2024-01-30T03:57:35;11.20;;;8.10;;
84007;SDS011;74070;50.948;6.954;2024-01-30T04:00:02;13.77;;;8.30;;
84007;SDS011;74070;50.948;6.954;2024-01-30T04:02:29;10.70;;;8.10;;
84007;SDS011;74070;50.948;6.954;2024-01-30T04:04:55;11.07;;;7.80;;
84007;SDS011;74070;50.948;6.954;2024-01-30T04:07:23;12.57;;;8.83;;
84007;SDS011;74070;50.948;6.954;2024-01-30T04:09:49;12.37;;;8.63;;
84007;SDS011;74070;50.948;6.954;2024-01-30T04:12:16;12.83;;;8.90;;
84007;SDS011;74070;50.948;6.954;2024-01-30T04:14:43;11.53;;;8.40;;
84007;SDS011;74070;50.948;6.954;2024-01-30T04:17:09;12.17;;;8.50;;
84007;SDS011;74070;50.948;6.954;2024-01-30T04:19:37;14.43;;;9.20;;
84007;SDS011;74070;50.948;6.954;2024-01-30T04:22:04;12.07;;;9.30;;
84007;SDS011;74070;50.948;6.954;2024-01-30T04:24:31;12.27;;;9.10;;
84007;SDS011;74070;50.948;6.954;2024-01-30T04:26:59;10.90;;;8.63;;
84007;SDS011;74070;50.948;6.954;2024-01-30T04:29:25;16.47;;;9.27;;
84007;SDS011;74070;50.948;6.954;2024-01-30T04:31:52;13.63;;;9.70;;
84007;SDS011;74070;50.948;6.954;2024-01-30T04:34:19;11.83;;;8.20;;
84007;SDS011;74070;50.948;6.954;2024-01-30T04:36:45;15.67;;;9.30;;
84007;SDS011;74070;50.948;6.954;2024-01-30T04:39:12;11.13;;;8.90;;
84007;SDS011;74070;50.948;6.954;2024-01-30T04:41:38;15.10;;;9.20;;
84007;SDS011;74070;50.948;6.954;2024-01-30T04:44:05;14.03;;;9.73;;
84007;SDS011;74070;50.948;6.954;2024-01-30T04:46:31;13.53;;;9.87;;
84007;SDS011;74070;50.948;6.954;2024-01-30T04:48:59;18.60;;;10.13;;
84007;SDS011;74070;50.948;6.954;2024-01-30T04:51:26;15.03;;;10.27;;
84007;SDS011;74070;50.948;6.954;2024-01-30T04:53:54;15.43;;;10.50;;
84007;SDS011;74070;50.948;6.954;2024-01-30T04:56:21;14.60;;;10.83;;
84007;SDS011;74070;50.948;6.954;2024-01-30T04:58:48;13.63;;;9.87;;
84007;SDS011;74070;50.948;6.954;2024-01-30T05:01:15;14.27;;;9.60;;
84007;SDS011;74070;50.948;6.954;2024-01-30T05:03:42;12.87;;;9.93;;
84007;SDS011;74070;50.948;6.954;2024-01-30T05:06:10;13.50;;;9.60;;
84007;SDS011;74070;50.948;6.954;2024-01-30T05:08:37;15.73;;;11.47;;
84007;SDS011;74070;50.948;6.954;2024-01-30T05:11:05;14.10;;;10.63;;
84007;SDS011;74070;50.948;6.954;2024-01-30T05:13:32;16.33;;;9.27;;
84007;SDS011;74070;50.948;6.954;2024-01-30T05:15:59;13.73;;;10.27;;
84007;SDS011;74070;50.948;6.954;2024-01-30T05:18:25;16.20;;;10.63;;
84007;SDS011;74070;50.948;6.954;2024-01-30T05:20:52;16.10;;;10.87;;
84007;SDS011;74070;50.948;6.954;2024-01-30T05:23:18;13.03;;;10.10;;
84007;SDS011;74070;50.948;6.954;2024-01-30T05:25:45;10.63;;;9.33;;
84007;SDS011;74070;50.948;6.954;2024-01-30T05:28:12;13.03;;;9.90;;
84007;SDS011;74070;50.948;6.954;2024-01-30T05:30:39;14.17;;;10.07;;
84007;SDS011;74070;50.948;6.954;2024-01-30T05:33:07;16.83;;;10.47;;
84007;SDS011;74070;50.948;6.954;2024-01-30T05:35:34;13.73;;;9.77;;
84007;SDS011;74070;50.948;6.954;2024-01-30T05:38:02;17.60;;;9.90;;
84007;SDS011;74070;50.948;6.954;2024-01-30T05:40:28;16.67;;;10.70;;
84007;SDS011;74070;50.948;6.954;2024-01-30T05:42:55;16.20;;;10.00;;
84007;SDS011;74070;50.948;6.954;2024-01-30T05:45:21;17.87;;;9.50;;
84007;SDS011;74070;50.948;6.954;2024-01-30T05:47:48;12.80;;;10.17;;
84007;SDS011;74070;50.948;6.954;2024-01-30T05:50:15;16.87;;;9.50;;
84007;SDS011;74070;50.948;6.954;2024-01-30T05:52:42;14.27;;;9.83;;
84007;SDS011;74070;50.948;6.954;2024-01-30T05:55:09;12.47;;;9.73;;
84007;SDS011;74070;50.948;6.954;2024-01-30T05:57:36;15.57;;;9.87;;
84007;SDS011;74070;50.948;6.954;2024-01-30T06:00:03;16.17;;;10.20;;
84007;SDS011;74070;50.948;6.954;2024-01-30T06:02:30;12.27;;;9.80;;
84007;SDS011;74070;50.948;6.954;2024-01-30T06:04:56;12.23;;;9.90;;
84007;SDS011;74070;50.948;6.954;2024-01-30T06:07:23;18.90;;;10.30;;
84007;SDS011;74070;50.948;6.954;2024-01-30T06:09:50;16.97;;;10.37;;
84007;SDS011;74070;50.948;6.954;2024-01-30T06:12:17;12.73;;;10.07;;
84007;SDS011;74070;50.948;6.954;2024-01-30T06:14:44;15.67;;;10.57;;
84007;SDS011;74070;50.948;6.954;2024-01-30T06:17:10;16.00;;;9.63;;
84007;SDS011;74070;50.948;6.954;2024-01-30T06:19:37;13.83;;;10.43;;
84007;SDS011;74070;50.948;6.954;2024-01-30T06:22:04;17.47;;;10.37;;
84007;SDS011;74070;50.948;6.954;2024-01-30T06:24:31;15.73;;;9.73;;
84007;SDS011;74070;50.948;6.954;2024-01-30T06:26:58;15.37;;;10.20;;
84007;SDS011;74070;50.948;6.954;2024-01-30T06:29:25;19.73;;;10.17;;
84007;SDS011;74070;50.948;6.954;2024-01-30T06:31:51;19.23;;;10.83;;
84007;SDS011;74070;50.948;6.954;2024-01-30T06:34:18;16.50;;;10.77;;
84007;SDS011;74070;50.948;6.954;2024-01-30T06:36:44;15.90;;;10.23;;
84007;SDS011;74070;50.948;6.954;2024-01-30T06:39:12;13.77;;;10.07;;
84007;SDS011;74070;50.948;6.954;2024-01-30T06:41:39;15.50;;;10.00;;
84007;SDS011;74070;50.948;6.954;2024-01-30T06:44:07;11.83;;;9.17;;
84007;SDS011;74070;50.948;6.954;2024-01-30T06:46:34;13.97;;;9.40;;
84007;SDS011;74070;50.948;6.954;2024-01-30T06:49:01;12.70;;;9.17;;
84007;SDS011;74070;50.948;6.954;2024-01-30T06:51:29;11.53;;;9.87;;
84007;SDS011;74070;50.948;6.954;2024-01-30T06:53:56;13.67;;;9.70;;
84007;SDS011;74070;50.948;6.954;2024-01-30T06:56:23;11.37;;;9.03;;
84007;SDS011;74070;50.948;6.954;2024-01-30T06:58:51;11.63;;;9.13;;
84007;SDS011;74070;50.948;6.954;2024-01-30T07:01:18;16.37;;;9.93;;
84007;SDS011;74070;50.948;6.954;2024-01-30T07:03:45;14.37;;;9.70;;
84007;SDS011;74070;50.948;6.954;2024-01-30T07:06:11;14.37;;;10.27;;
84007;SDS011;74070;50.948;6.954;2024-01-30T07:08:38;13.63;;;9.60;;
84007;SDS011;74070;50.948;6.954;2024-01-30T07:11:05;11.90;;;8.97;;
84007;SDS011;74070;50.948;6.954;2024-01-30T07:13:31;13.97;;;10.00;;
84007;SDS011;74070;50.948;6.954;2024-01-30T07:15:58;13.10;;;9.27;;
84007;SDS011;74070;50.948;6.954;2024-01-30T07:18:24;13.73;;;9.53;;
84007;SDS011;74070;50.948;6.954;2024-01-30T07:20:52;14.33;;;9.17;;
84007;SDS011;74070;50.948;6.954;2024-01-30T07:23:19;11.57;;;9.13;;
84007;SDS011;74070;50.948;6.954;2024-01-30T07:25:46;14.93;;;10.07;;
84007;SDS011;74070;50.948;6.954;2024-01-30T07:28:12;14.63;;;9.20;;
84007;SDS011;74070;50.948;6.954;2024-01-30T07:30:39;10.90;;;9.33;;
84007;SDS011;74070;50.948;6.954;2024-01-30T07:33:06;13.33;;;10.00;;
84007;SDS011;74070;50.948;6.954;2024-01-30T07:35:33;16.10;;;10.03;;
84007;SDS011;74070;50.948;6.954;2024-01-30T07:37:59;14.63;;;8.83;;
84007;SDS011;74070;50.948;6.954;2024-01-30T07:40:26;12.77;;;9.50;;
84007;SDS011;74070;50.948;6.954;2024-01-30T07:42:53;11.17;;;9.37;;
84007;SDS011;74070;50.948;6.954;2024-01-30T07:45:20;15.60;;;9.67;;
84007;SDS011;74070;50.948;6.954;2024-01-30T07:47:48;13.37;;;9.27;;
84007;SDS011;74070;50.948;6.954;2024-01-30T07:50:14;12.80;;;9.80;;
84007;SDS011;74070;50.948;6.954;2024-01-30T07:52:41;15.30;;;9.63;;
84007;SDS011;74070;50.948;6.954;2024-01-30T07:55:08;12.30;;;9.23;;
84007;SDS011;74070;50.948;6.954;2024-01-30T07:57:34;13.83;;;8.90;;
84007;SDS011;74070;50.948;6.954;2024-01-30T08:00:01;11.40;;;8.57;;
84007;SDS011;74070;50.948;6.954;2024-01-30T08:02:27;12.83;;;9.07;;
84007;SDS011;74070;50.948;6.954;2024-01-30T08:04:54;15.07;;;9.80;;
84007;SDS011;74070;50.948;6.954;2024-01-30T08:07:21;14.33;;;9.27;;
84007;SDS011;74070;50.948;6.954;2024-01-30T08:09:47;15.63;;;9.07;;
84007;SDS011;74070;50.948;6.954;2024-01-30T08:12:14;12.80;;;9.07;;
84007;SDS011;74070;50.948;6.954;2024-01-30T08:14:40;11.17;;;8.57;;
84007;SDS011;74070;50.948;6.954;2024-01-30T08:17:08;11.00;;;8.50;;
84007;SDS011;74070;50.948;6.954;2024-01-30T08:19:35;11.60;;;8.47;;
84007;SDS011;74070;50.948;6.954;2024-01-30T08:22:02;15.80;;;9.00;;
84007;SDS011;74070;50.948;6.954;2024-01-30T08:24:29;11.20;;;8.60;;
84007;SDS011;74070;50.948;6.954;2024-01-30T08:26:56;11.20;;;8.37;;
84007;SDS011;74070;50.948;6.954;2024-01-30T08:29:22;13.90;;;9.17;;
84007;SDS011;74070;50.948;6.954;2024-01-30T08:31:49;10.70;;;9.13;;
84007;SDS011;74070;50.948;6.954;2024-01-30T08:34:16;12.40;;;8.50;;
84007;SDS011;74070;50.948;6.954;2024-01-30T08:36:43;9.93;;;8.37;;
84007;SDS011;74070;50.948;6.954;2024-01-30T08:39:09;15.17;;;9.07;;
84007;SDS011;74070;50.948;6.954;2024-01-30T08:41:37;12.63;;;8.27;;
84007;SDS011;74070;50.948;6.954;2024-01-30T08:44:03;10.93;;;8.00;;
84007;SDS011;74070;50.948;6.954;2024-01-30T08:46:30;12.30;;;8.50;;
84007;SDS011;74070;50.948;6.954;2024-01-30T08:48:57;9.73;;;7.97;;
84007;SDS011;74070;50.948;6.954;2024-01-30T08:51:23;14.10;;;8.70;;
84007;SDS011;74070;50.948;6.954;2024-01-30T08:53:50;17.13;;;8.80;;
84007;SDS011;74070;50.948;6.954;2024-01-30T08:56:16;12.93;;;8.73;;
84007;SDS011;74070;50.948;6.954;2024-01-30T08:58:43;14.23;;;9.57;;
84007;SDS011;74070;50.948;6.954;2024-01-30T09:01:10;12.37;;;8.90;;
84007;SDS011;74070;50.948;6.954;2024-01-30T09:03:36;14.37;;;10.27;;
84007;SDS011;74070;50.948;6.954;2024-01-30T09:06:03;12.77;;;9.10;;
84007;SDS011;74070;50.948;6.954;2024-01-30T09:08:31;10.80;;;8.17;;
84007;SDS011;74070;50.948;6.954;2024-01-30T09:10:58;12.20;;;8.60;;
84007;SDS011;74070;50.948;6.954;2024-01-30T09:13:26;13.77;;;9.43;;
84007;SDS011;74070;50.948;6.954;2024-01-30T09:15:52;14.17;;;8.37;;
84007;SDS011;74070;50.948;6.954;2024-01-30T09:18:19;12.33;;;8.37;;
84007;SDS011;74070;50.948;6.954;2024-01-30T09:20:45;12.63;;;8.13;;
84007;SDS011;74070;50.948;6.954;2024-01-30T09:23:12;14.93;;;8.13;;
84007;SDS011;74070;50.948;6.954;2024-01-30T09:25:39;11.73;;;8.30;;
84007;SDS011;74070;50.948;6.954;2024-01-30T09:28:05;13.23;;;8.23;;
84007;SDS011;74070;50.948;6.954;2024-01-30T09:30:32;12.80;;;7.23;;
84007;SDS011;74070;50.948;6.954;2024-01-30T09:32:58;10.50;;;8.20;;
84007;SDS011;74070;50.948;6.954;2024-01-30T09:35:25;14.40;;;8.60;;
84007;SDS011;74070;50.948;6.954;2024-01-30T09:37:52;14.57;;;8.37;;
84007;SDS011;74070;50.948;6.954;2024-01-30T09:40:20;12.03;;;8.57;;
84007;SDS011;74070;50.948;6.954;2024-01-30T09:42:47;14.00;;;9.20;;
84007;SDS011;74070;50.948;6.954;2024-01-30T09:45:13;16.43;;;9.63;;
84007;SDS011;74070;50.948;6.954;2024-01-30T09:47:40;10.77;;;8.77;;
84007;SDS011;74070;50.948;6.954;2024-01-30T09:50:06;13.17;;;9.20;;
84007;SDS011;74070;50.948;6.954;2024-01-30T09:52:33;13.03;;;8.70;;
84007;SDS011;74070;50.948;6.954;2024-01-30T09:55:00;9.50;;;7.60;;
84007;SDS011;74070;50.948;6.954;2024-01-30T09:57:27;21.67;;;10.17;;
84007;SDS011;74070;50.948;6.954;2024-01-30T09:59:53;19.70;;;10.70;;
84007;SDS011;74070;50.948;6.954;2024-01-30T10:02:20;11.53;;;8.27;;
84007;SDS011;74070;50.948;6.954;2024-01-30T10:04:48;15.37;;;9.93;;
84007;SDS011;74070;50.948;6.954;2024-01-30T10:07:14;15.97;;;9.07;;
84007;SDS011;74070;50.948;6.954;2024-01-30T10:09:41;16.33;;;10.27;;
84007;SDS011;74070;50.948;6.954;2024-01-30T10:12:08;17.60;;;9.70;;
84007;SDS011;74070;50.948;6.954;2024-01-30T10:14:39;16.20;;;8.87;;
84007;SDS011;74070;50.948;6.954;2024-01-30T10:17:06;13.93;;;9.83;;
84007;SDS011;74070;50.948;6.954;2024-01-30T10:19:32;20.53;;;10.83;;
84007;SDS011;74070;50.948;6.954;2024-01-30T10:21:59;15.63;;;9.90;;
84007;SDS011;74070;50.948;6.954;2024-01-30T10:24:25;12.90;;;8.97;;
84007;SDS011;74070;50.948;6.954;2024-01-30T10:26:53;14.57;;;8.47;;
84007;SDS011;74070;50.948;6.954;2024-01-30T10:29:19;11.23;;;7.70;;
84007;SDS011;74070;50.948;6.954;2024-01-30T10:31:46;13.33;;;7.80;;
84007;SDS011;74070;50.948;6.954;2024-01-30T10:34:12;12.97;;;8.00;;
84007;SDS011;74070;50.948;6.954;2024-01-30T10:36:40;18.10;;;8.40;;
84007;SDS011;74070;50.948;6.954;2024-01-30T10:39:08;17.23;;;8.40;;
84007;SDS011;74070;50.948;6.954;2024-01-30T10:41:39;18.33;;;8.90;;
84007;SDS011;74070;50.948;6.954;2024-01-30T10:44:07;12.07;;;8.47;;
84007;SDS011;74070;50.948;6.954;2024-01-30T10:46:31;14.00;;;7.67;;
84007;SDS011;74070;50.948;6.954;2024-01-30T10:48:57;11.57;;;7.57;;
84007;SDS011;74070;50.948;6.954;2024-01-30T10:51:23;11.73;;;7.77;;
84007;SDS011;74070;50.948;6.954;2024-01-30T10:53:50;12.40;;;7.53;;
84007;SDS011;74070;50.948;6.954;2024-01-30T10:56:17;10.87;;;7.37;;
84007;SDS011;74070;50.948;6.954;2024-01-30T10:58:44;12.73;;;7.70;;
84007;SDS011;74070;50.948;6.954;2024-01-30T11:01:10;10.23;;;7.40;;
84007;SDS011;74070;50.948;6.954;2024-01-30T11:03:37;11.30;;;7.47;;
84007;SDS011;74070;50.948;6.954;2024-01-30T11:06:03;9.53;;;7.27;;
84007;SDS011;74070;50.948;6.954;2024-01-30T11:08:31;11.50;;;7.57;;
84007;SDS011;74070;50.948;6.954;2024-01-30T11:10:58;13.63;;;8.40;;
84007;SDS011;74070;50.948;6.954;2024-01-30T11:13:30;15.17;;;8.53;;
84007;SDS011;74070;50.948;6.954;2024-01-30T11:16:03;11.87;;;7.40;;
84007;SDS011;74070;50.948;6.954;2024-01-30T11:18:31;10.60;;;7.13;;
84007;SDS011;74070;50.948;6.954;2024-01-30T11:20:59;9.77;;;6.80;;
84007;SDS011;74070;50.948;6.954;2024-01-30T11:23:26;11.30;;;7.37;;
84007;SDS011;74070;50.948;6.954;2024-01-30T11:25:53;14.87;;;8.87;;
84007;SDS011;74070;50.948;6.954;2024-01-30T11:28:20;13.50;;;7.60;;
84007;SDS011;74070;50.948;6.954;2024-01-30T11:30:47;16.50;;;8.53;;
84007;SDS011;74070;50.948;6.954;2024-01-30T11:33:16;13.63;;;9.37;;
84007;SDS011;74070;50.948;6.954;2024-01-30T11:35:42;21.17;;;9.80;;
84007;SDS011;74070;50.948;6.954;2024-01-30T11:38:09;14.73;;;8.93;;
84007;SDS011;74070;50.948;6.954;2024-01-30T11:40:36;12.00;;;8.60;;
84007;SDS011;74070;50.948;6.954;2024-01-30T11:43:02;16.43;;;9.83;;
84007;SDS011;74070;50.948;6.954;2024-01-30T11:45:28;26.10;;;16.33;;
84007;SDS011;74070;50.948;6.954;2024-01-30T11:47:55;16.87;;;9.70;;
84007;SDS011;74070;50.948;6.954;2024-01-30T11:50:23;15.47;;;9.03;;
84007;SDS011;74070;50.948;6.954;2024-01-30T11:52:49;12.57;;;8.43;;
84007;SDS011;74070;50.948;6.954;2024-01-30T11:55:16;18.27;;;9.33;;
84007;SDS011;74070;50.948;6.954;2024-01-30T11:57:44;14.67;;;7.57;;
84007;SDS011;74070;50.948;6.954;2024-01-30T12:00:14;10.27;;;6.73;;
84007;SDS011;74070;50.948;6.954;2024-01-30T12:02:41;11.57;;;6.87;;
84007;SDS011;74070;50.948;6.954;2024-01-30T12:05:07;12.17;;;6.23;;
84007;SDS011;74070;50.948;6.954;2024-01-30T12:07:34;14.33;;;8.27;;
84007;SDS011;74070;50.948;6.954;2024-01-30T12:10:01;18.00;;;8.80;;
84007;SDS011;74070;50.948;6.954;2024-01-30T12:12:28;11.17;;;7.37;;
84007;SDS011;74070;50.948;6.954;2024-01-30T12:14:54;17.40;;;8.37;;
84007;SDS011;74070;50.948;6.954;2024-01-30T12:17:23;12.67;;;8.43;;
84007;SDS011;74070;50.948;6.954;2024-01-30T12:20:05;15.97;;;10.87;;
84007;SDS011;74070;50.948;6.954;2024-01-30T12:22:37;13.20;;;7.80;;
84007;SDS011;74070;50.948;6.954;2024-01-30T12:25:07;11.80;;;8.50;;
84007;SDS011;74070;50.948;6.954;2024-01-30T12:27:34;14.17;;;7.80;;
84007;SDS011;74070;50.948;6.954;2024-01-30T12:30:00;13.20;;;7.63;;
84007;SDS011;74070;50.948;6.954;2024-01-30T12:32:28;10.97;;;6.80;;
84007;SDS011;74070;50.948;6.954;2024-01-30T12:34:55;11.17;;;8.37;;
84007;SDS011;74070;50.948;6.954;2024-01-30T12:37:22;12.13;;;7.37;;
84007;SDS011;74070;50.948;6.954;2024-01-30T12:39:48;11.27;;;6.77;;
84007;SDS011;74070;50.948;6.954;2024-01-30T12:42:15;10.67;;;6.77;;
84007;SDS011;74070;50.948;6.954;2024-01-30T12:44:41;12.07;;;7.20;;
84007;SDS011;74070;50.948;6.954;2024-01-30T12:47:08;14.90;;;8.10;;
84007;SDS011;74070;50.948;6.954;2024-01-30T12:49:35;11.70;;;7.53;;
84007;SDS011;74070;50.948;6.954;2024-01-30T12:52:01;14.47;;;8.60;;
84007;SDS011;74070;50.948;6.954;2024-01-30T12:54:28;16.93;;;9.93;;
84007;SDS011;74070;50.948;6.954;2024-01-30T12:56:54;13.50;;;8.07;;
84007;SDS011;74070;50.948;6.954;2024-01-30T12:59:21;15.47;;;7.33;;
84007;SDS011;74070;50.948;6.954;2024-01-30T13:01:48;11.03;;;7.57;;
84007;SDS011;74070;50.948;6.954;2024-01-30T13:04:14;10.50;;;7.53;;
84007;SDS011;74070;50.948;6.954;2024-01-30T13:06:41;12.47;;;7.37;;
84007;SDS011;74070;50.948;6.954;2024-01-30T13:09:07;15.27;;;7.07;;
84007;SDS011;74070;50.948;6.954;2024-01-30T13:11:34;13.07;;;7.70;;
84007;SDS011;74070;50.948;6.954;2024-01-30T13:14:01;10.60;;;6.77;;
84007;SDS011;74070;50.948;6.954;2024-01-30T13:16:28;16.10;;;7.07;;
84007;SDS011;74070;50.948;6.954;2024-01-30T13:18:54;13.27;;;6.70;;
84007;SDS011;74070;50.948;6.954;2024-01-30T13:21:21;16.13;;;7.70;;
84007;SDS011;74070;50.948;6.954;2024-01-30T13:23:47;13.03;;;6.90;;
84007;SDS011;74070;50.948;6.954;2024-01-30T13:26:14;22.97;;;7.53;;
84007;SDS011;74070;50.948;6.954;2024-01-30T13:28:41;12.53;;;6.43;;
84007;SDS011;74070;50.948;6.954;2024-01-30T13:31:07;20.60;;;8.23;;
84007;SDS011;74070;50.948;6.954;2024-01-30T13:33:34;14.13;;;6.80;;
84007;SDS011;74070;50.948;6.954;2024-01-30T13:36:01;10.23;;;6.13;;
84007;SDS011;74070;50.948;6.954;2024-01-30T13:38:28;11.63;;;5.00;;
84007;SDS011;74070;50.948;6.954;2024-01-30T13:40:55;12.30;;;5.23;;
84007;SDS011;74070;50.948;6.954;2024-01-30T13:43:21;12.37;;;4.50;;
84007;SDS011;74070;50.948;6.954;2024-01-30T13:45:48;11.43;;;4.57;;
84007;SDS011;74070;50.948;6.954;2024-01-30T13:48:15;16.40;;;5.30;;
84007;SDS011;74070;50.948;6.954;2024-01-30T13:50:42;9.10;;;4.67;;
84007;SDS011;74070;50.948;6.954;2024-01-30T13:53:10;8.33;;;3.80;;
84007;SDS011;74070;50.948;6.954;2024-01-30T13:55:36;11.00;;;4.40;;
84007;SDS011;74070;50.948;6.954;2024-01-30T13:58:03;11.47;;;4.57;;
84007;SDS011;74070;50.948;6.954;2024-01-30T14:00:30;9.47;;;4.43;;
84007;SDS011;74070;50.948;6.954;2024-01-30T14:02:56;13.07;;;6.50;;
84007;SDS011;74070;50.948;6.954;2024-01-30T14:05:25;13.00;;;4.47;;
84007;SDS011;74070;50.948;6.954;2024-01-30T14:07:52;11.90;;;5.10;;
84007;SDS011;74070;50.948;6.954;2024-01-30T14:10:18;10.07;;;4.50;;
84007;SDS011;74070;50.948;6.954;2024-01-30T14:12:45;7.67;;;4.13;;
84007;SDS011;74070;50.948;6.954;2024-01-30T14:15:12;10.93;;;4.53;;
84007;SDS011;74070;50.948;6.954;2024-01-30T14:17:39;7.40;;;4.23;;
84007;SDS011;74070;50.948;6.954;2024-01-30T14:20:06;6.77;;;4.33;;
84007;SDS011;74070;50.948;6.954;2024-01-30T14:22:33;5.50;;;3.83;;
84007;SDS011;74070;50.948;6.954;2024-01-30T14:25:00;9.23;;;4.53;;
84007;SDS011;74070;50.948;6.954;2024-01-30T14:27:26;6.67;;;3.83;;
84007;SDS011;74070;50.948;6.954;2024-01-30T14:29:54;7.73;;;4.40;;